Weather History for Woodward, OK

Change the Weather History Date:

Tuesday, October 25, 2011

  Actual Average (KGAG) Record (KGAG)
Temperature  
Mean Temperature 74 °F -  
Max Temperature 86 °F 69 °F 91 °F (1959)
Min Temperature 62 °F 40 °F 22 °F (1975)
Cooling Degree Days 9    
Growing Degree Days 24 (Base 50)    
Moisture  
Dew Point 39 °F    
Average Humidity 33    
Maximum Humidity 52    
Minimum Humidity 13    
Precipitation  
Precipitation 0.00 in - - ()
Sea Level Pressure  
Sea Level Pressure 29.90 in    
Wind  
Wind Speed 20 mph (SSW)    
Max Wind Speed 29 mph    
Max Gust Speed 37 mph    
Visibility 10 miles    
Events      
Averages and records for this station are not official NWS values.
T = Trace of Precipitation, MM = Missing Value Source: NWS Daily Summary

Daily Weather History Graph

Daily Weather History Graph

Search for Another Location

Airport:

Trip Planner

Search our weather history database for the weather conditions in past years. The results will help you decide how hot, cold, wet, or windy it might be!

Date:

Astronomy

Oct. 25, 2011 Rise Set
Actual Time 7:54 AM CDT 6:49 PM CDT
Civil Twilight 7:27 AM CDT 7:15 PM CDT
Nautical Twilight 6:57 AM CDT 7:46 PM CDT
Astronomical Twilight 6:27 AM CDT 8:15 PM CDT
Moon 6:29 AM CDT (10/25) 5:52 PM CDT (10/25)
Length of Visible Light 11h 47m
Length of Day
10h 55m
Waning Crescent, 2% of the Moon is Illuminated
Oct 25
Waning Crescent
Oct 26
New
Nov 2
First Quarter
Nov 10
Full
Nov 18
Last Quarter

Hourly Weather History & Observations

Time (CDT) Temp. Dew Point Humidity Pressure Visibility Wind Dir Wind Speed Gust Speed Precip Events Conditions
12:15 AM 69.8 °F 37.4 °F 31% 29.95 in 10.0 mi South 28.8 mph 35.7 mph N/A   Clear
12:55 AM 68.0 °F 41.0 °F 37% 29.95 in 10.0 mi South 27.6 mph 36.8 mph N/A   Clear
1:15 AM 68.0 °F 41.0 °F 37% 29.94 in 10.0 mi South 27.6 mph 33.4 mph N/A   Clear
1:35 AM 68.0 °F 42.8 °F 40% 29.94 in 10.0 mi South 24.2 mph 32.2 mph N/A   Clear
2:15 AM 66.2 °F 42.8 °F 43% 29.94 in 10.0 mi South 24.2 mph 32.2 mph N/A   Clear
2:35 AM 68.0 °F 42.8 °F 40% 29.94 in 10.0 mi South 24.2 mph 32.2 mph N/A   Clear
2:55 AM 68.0 °F 42.8 °F 40% 29.94 in 10.0 mi South 24.2 mph 34.5 mph N/A   Clear
3:15 AM 66.2 °F 42.8 °F 43% 29.93 in 10.0 mi South 24.2 mph 32.2 mph N/A   Clear
3:35 AM 64.4 °F 42.8 °F 45% 29.93 in 10.0 mi South 21.9 mph 28.8 mph N/A   Clear
3:55 AM 64.4 °F 42.8 °F 45% 29.93 in 10.0 mi South 21.9 mph 29.9 mph N/A   Clear
4:15 AM 64.4 °F 42.8 °F 45% 29.92 in 10.0 mi South 23.0 mph 28.8 mph N/A   Clear
4:35 AM 64.4 °F 44.6 °F 49% 29.91 in 10.0 mi South 23.0 mph 28.8 mph N/A   Clear
4:55 AM 64.4 °F 44.6 °F 49% 29.91 in 10.0 mi South 21.9 mph 27.6 mph N/A   Clear
5:15 AM 64.4 °F 44.6 °F 49% 29.91 in 10.0 mi South 20.7 mph 26.5 mph N/A   Clear
5:35 AM 62.6 °F 44.6 °F 52% 29.90 in 10.0 mi South 21.9 mph 26.5 mph N/A   Clear
5:55 AM 62.6 °F 44.6 °F 52% 29.90 in 10.0 mi SSW 20.7 mph 25.3 mph N/A   Clear
6:15 AM 62.6 °F 44.6 °F 52% 29.90 in 10.0 mi SSW 20.7 mph 26.5 mph N/A   Clear
6:35 AM 62.6 °F 44.6 °F 52% 29.89 in 10.0 mi SSW 18.4 mph 26.5 mph N/A   Clear
6:55 AM 62.6 °F 44.6 °F 52% 29.89 in 10.0 mi SSW 16.1 mph - N/A   Clear
7:15 AM 62.6 °F 44.6 °F 52% 29.89 in 10.0 mi SSW 18.4 mph 25.3 mph N/A   Clear
7:55 AM 64.4 °F 46.4 °F 52% 29.88 in 10.0 mi SSW 23.0 mph 26.5 mph N/A   Clear
8:15 AM 64.4 °F 46.4 °F 52% 29.89 in 10.0 mi SSW 21.9 mph - N/A   Clear
8:35 AM 64.4 °F 46.4 °F 52% 29.89 in 10.0 mi SSW 20.7 mph 27.6 mph N/A   Clear
8:55 AM 64.4 °F 46.4 °F 52% 29.90 in 10.0 mi SSW 19.6 mph 26.5 mph N/A   Clear
9:15 AM 68.0 °F 46.4 °F 46% 29.90 in 10.0 mi SSW 20.7 mph 26.5 mph N/A   Clear
9:35 AM 69.8 °F 46.4 °F 43% 29.90 in 10.0 mi SSW 21.9 mph 28.8 mph N/A   Clear
9:55 AM 69.8 °F 46.4 °F 43% 29.91 in 10.0 mi SSW 21.9 mph 28.8 mph N/A   Clear
10:15 AM 71.6 °F 46.4 °F 41% 29.91 in 10.0 mi SSW 20.7 mph 27.6 mph N/A   Clear
10:35 AM 73.4 °F 46.4 °F 38% 29.91 in 10.0 mi SSW 18.4 mph 26.5 mph N/A   Clear
10:55 AM 73.4 °F 44.6 °F 36% 29.91 in 10.0 mi SW 20.7 mph 26.5 mph N/A   Clear
11:15 AM 75.2 °F 44.6 °F 34% 29.90 in 10.0 mi SW 19.6 mph 26.5 mph N/A   Clear
11:35 AM 77.0 °F 44.6 °F 32% 29.91 in 10.0 mi SW 17.3 mph - N/A   Clear
11:55 AM 77.0 °F 44.6 °F 32% 29.91 in 10.0 mi SW 17.3 mph 20.7 mph N/A   Clear
12:15 PM 78.8 °F 44.6 °F 30% 29.91 in 10.0 mi SW 15.0 mph - N/A   Clear
12:35 PM 80.6 °F 44.6 °F 28% 29.90 in 10.0 mi SW 12.7 mph - N/A   Clear
12:55 PM 82.4 °F 44.6 °F 26% 29.90 in 10.0 mi SW 9.2 mph 16.1 mph N/A   Clear
1:15 PM 82.4 °F 32.0 °F 16% 29.89 in 10.0 mi NW 8.1 mph - N/A   Clear
1:35 PM 82.4 °F 33.8 °F 17% 29.89 in 10.0 mi WNW 4.6 mph - N/A   Clear
1:55 PM 84.2 °F 32.0 °F 15% 29.89 in 10.0 mi NW 6.9 mph - N/A   Clear
2:15 PM 84.2 °F 30.2 °F 14% 29.88 in 10.0 mi NNW 10.4 mph - N/A   Clear
2:35 PM 84.2 °F 28.4 °F 13% 29.88 in 10.0 mi North 9.2 mph 16.1 mph N/A   Clear
2:55 PM 84.2 °F 30.2 °F 14% 29.87 in 10.0 mi NNE 8.1 mph - N/A   Clear
3:15 PM 84.2 °F 30.2 °F 14% 29.87 in 10.0 mi NNW 4.6 mph - N/A   Clear
3:35 PM 86.0 °F 30.2 °F 13% 29.87 in 10.0 mi NNE 10.4 mph - N/A   Clear
3:55 PM 84.2 °F 28.4 °F 13% 29.87 in 10.0 mi NNE 10.4 mph - N/A   Clear
4:15 PM 84.2 °F 28.4 °F 13% 29.86 in 10.0 mi NE 6.9 mph - N/A   Clear
4:35 PM 84.2 °F 30.2 °F 14% 29.87 in 10.0 mi NNE 6.9 mph - N/A   Clear
4:55 PM 84.2 °F 30.2 °F 14% 29.87 in 10.0 mi NNE 9.2 mph - N/A   Clear
5:15 PM 82.4 °F 28.4 °F 14% 29.87 in 10.0 mi NE 9.2 mph - N/A   Clear
5:35 PM 82.4 °F 30.2 °F 15% 29.87 in 10.0 mi NNE 5.8 mph - N/A   Clear
5:55 PM 80.6 °F 32.0 °F 17% 29.87 in 10.0 mi NNE 6.9 mph - N/A   Clear
6:15 PM 78.8 °F 32.0 °F 18% 29.87 in 10.0 mi NNE 9.2 mph - N/A   Clear
6:35 PM 77.0 °F 32.0 °F 19% 29.88 in 10.0 mi NNE 9.2 mph - N/A   Clear
6:55 PM 73.4 °F 32.0 °F 22% 29.88 in 10.0 mi NNE 8.1 mph - N/A   Clear
7:15 PM 71.6 °F 33.8 °F 25% 29.89 in 10.0 mi NNE 8.1 mph - N/A   Clear
7:35 PM 69.8 °F 33.8 °F 27% 29.89 in 10.0 mi NNE 9.2 mph - N/A   Clear
7:55 PM 69.8 °F 33.8 °F 27% 29.90 in 10.0 mi NNE 9.2 mph - N/A   Clear
8:15 PM 69.8 °F 35.6 °F 28% 29.91 in 10.0 mi NNE 13.8 mph - N/A   Clear
8:35 PM 68.0 °F 35.6 °F 30% 29.91 in 10.0 mi NNE 10.4 mph - N/A   Clear
8:55 PM 66.2 °F 35.6 °F 32% 29.91 in 10.0 mi NE 10.4 mph - N/A   Clear
9:15 PM 64.4 °F 35.6 °F 34% 29.91 in 10.0 mi NE 8.1 mph - N/A   Clear
9:35 PM 64.4 °F 35.6 °F 34% 29.92 in 10.0 mi NE 13.8 mph - N/A   Clear
9:55 PM 62.6 °F 35.6 °F 37% 29.91 in 10.0 mi NE 13.8 mph 18.4 mph N/A   Clear
10:15 PM 62.6 °F 37.4 °F 39% 29.92 in 10.0 mi NE 11.5 mph - N/A   Clear
10:35 PM 62.6 °F 37.4 °F 39% 29.91 in 10.0 mi NE 16.1 mph 23.0 mph N/A   Clear
10:55 PM 62.6 °F 37.4 °F 39% 29.92 in 10.0 mi NE 12.7 mph - N/A   Clear
11:15 PM 60.8 °F 39.2 °F 45% 29.93 in 10.0 mi NE 11.5 mph - N/A   Clear
11:35 PM 60.8 °F 39.2 °F 45% 29.93 in 10.0 mi NE 11.5 mph - N/A   Clear
11:55 PM 60.8 °F 39.2 °F 45% 29.93 in 10.0 mi ENE 10.4 mph - N/A   Clear